sensor_id;sensor_type;location;lat;lon;timestamp;pressure;altitude;pressure_sealevel;temperature;humidity
35619;BME280;21743;55.786;37.168;2022-08-03T00:00:51;99762.59;;;16.47;70.98
35619;BME280;21743;55.786;37.168;2022-08-03T00:03:17;99758.03;;;16.41;71.07
35619;BME280;21743;55.786;37.168;2022-08-03T00:05:43;99754.16;;;16.37;71.14
35619;BME280;21743;55.786;37.168;2022-08-03T00:08:09;99753.50;;;16.35;71.04
35619;BME280;21743;55.786;37.168;2022-08-03T00:10:35;99754.31;;;16.36;70.99
35619;BME280;21743;55.786;37.168;2022-08-03T00:13:03;99763.19;;;16.35;70.94
35619;BME280;21743;55.786;37.168;2022-08-03T00:15:28;99761.59;;;16.34;71.08
35619;BME280;21743;55.786;37.168;2022-08-03T00:17:54;99760.56;;;16.35;71.14
35619;BME280;21743;55.786;37.168;2022-08-03T00:20:20;99768.28;;;16.36;70.92
35619;BME280;21743;55.786;37.168;2022-08-03T00:22:46;99767.84;;;16.33;71.04
35619;BME280;21743;55.786;37.168;2022-08-03T00:25:12;99774.09;;;16.32;71.29
35619;BME280;21743;55.786;37.168;2022-08-03T00:27:38;99771.63;;;16.30;71.29
35619;BME280;21743;55.786;37.168;2022-08-03T00:30:04;99774.25;;;16.30;71.37
35619;BME280;21743;55.786;37.168;2022-08-03T00:32:30;99768.53;;;16.27;71.72
35619;BME280;21743;55.786;37.168;2022-08-03T00:34:56;99763.47;;;16.25;71.55
35619;BME280;21743;55.786;37.168;2022-08-03T00:37:22;99772.81;;;16.28;71.50
35619;BME280;21743;55.786;37.168;2022-08-03T00:39:47;99774.59;;;16.27;71.59
35619;BME280;21743;55.786;37.168;2022-08-03T00:42:13;99776.41;;;16.27;71.71
35619;BME280;21743;55.786;37.168;2022-08-03T00:44:42;99773.16;;;16.25;71.83
35619;BME280;21743;55.786;37.168;2022-08-03T00:47:08;99779.75;;;16.21;72.02
35619;BME280;21743;55.786;37.168;2022-08-03T00:49:36;99770.06;;;16.21;72.20
35619;BME280;21743;55.786;37.168;2022-08-03T00:52:02;99768.44;;;16.20;72.11
35619;BME280;21743;55.786;37.168;2022-08-03T00:54:29;99766.72;;;16.12;72.22
35619;BME280;21743;55.786;37.168;2022-08-03T00:56:54;99766.25;;;16.09;72.47
35619;BME280;21743;55.786;37.168;2022-08-03T00:59:21;99764.78;;;16.06;72.47
35619;BME280;21743;55.786;37.168;2022-08-03T01:01:47;99756.66;;;16.01;72.58
35619;BME280;21743;55.786;37.168;2022-08-03T01:04:12;99761.09;;;16.01;72.70
35619;BME280;21743;55.786;37.168;2022-08-03T01:17:54;99751.38;;;15.87;73.06
35619;BME280;21743;55.786;37.168;2022-08-03T01:20:21;99757.78;;;15.84;73.16
35619;BME280;21743;55.786;37.168;2022-08-03T01:28:47;99752.28;;;15.94;73.00
35619;BME280;21743;55.786;37.168;2022-08-03T01:31:10;99747.47;;;15.82;73.13
35619;BME280;21743;55.786;37.168;2022-08-03T01:33:39;99756.97;;;15.83;73.40
35619;BME280;21743;55.786;37.168;2022-08-03T01:36:09;99747.66;;;15.81;73.19
35619;BME280;21743;55.786;37.168;2022-08-03T01:38:55;99753.72;;;15.81;73.17
35619;BME280;21743;55.786;37.168;2022-08-03T01:41:29;99754.88;;;15.79;73.20
35619;BME280;21743;55.786;37.168;2022-08-03T01:43:57;99761.47;;;15.75;73.15
35619;BME280;21743;55.786;37.168;2022-08-03T01:46:25;99763.25;;;15.74;73.33
35619;BME280;21743;55.786;37.168;2022-08-03T01:48:51;99756.13;;;15.68;73.55
35619;BME280;21743;55.786;37.168;2022-08-03T01:51:19;99759.22;;;15.72;73.55
35619;BME280;21743;55.786;37.168;2022-08-03T01:53:48;99760.84;;;15.73;73.62
35619;BME280;21743;55.786;37.168;2022-08-03T01:56:16;99761.47;;;15.75;73.25
35619;BME280;21743;55.786;37.168;2022-08-03T01:58:45;99768.00;;;15.79;73.45
35619;BME280;21743;55.786;37.168;2022-08-03T02:01:14;99761.75;;;15.80;73.27
35619;BME280;21743;55.786;37.168;2022-08-03T02:03:42;99762.75;;;15.79;73.29
35619;BME280;21743;55.786;37.168;2022-08-03T02:06:09;99762.44;;;15.74;73.53
35619;BME280;21743;55.786;37.168;2022-08-03T02:08:38;99767.09;;;15.72;73.55
35619;BME280;21743;55.786;37.168;2022-08-03T02:11:05;99767.19;;;15.78;73.46
35619;BME280;21743;55.786;37.168;2022-08-03T02:13:33;99764.56;;;15.78;73.56
35619;BME280;21743;55.786;37.168;2022-08-03T02:16:03;99765.28;;;15.72;73.59
35619;BME280;21743;55.786;37.168;2022-08-03T02:18:30;99767.69;;;15.74;73.62
35619;BME280;21743;55.786;37.168;2022-08-03T02:21:00;99779.00;;;15.74;73.60
35619;BME280;21743;55.786;37.168;2022-08-03T02:23:26;99767.19;;;15.78;73.68
35619;BME280;21743;55.786;37.168;2022-08-03T02:25:56;99770.16;;;15.75;73.65
35619;BME280;21743;55.786;37.168;2022-08-03T02:28:29;99777.19;;;15.75;73.97
35619;BME280;21743;55.786;37.168;2022-08-03T02:30:57;99771.13;;;15.74;73.89
35619;BME280;21743;55.786;37.168;2022-08-03T02:33:33;99775.88;;;15.79;73.91
35619;BME280;21743;55.786;37.168;2022-08-03T02:36:01;99778.16;;;15.82;73.73
35619;BME280;21743;55.786;37.168;2022-08-03T02:38:35;99783.22;;;15.83;73.74
35619;BME280;21743;55.786;37.168;2022-08-03T02:41:05;99781.41;;;15.84;74.03
35619;BME280;21743;55.786;37.168;2022-08-03T02:43:34;99779.88;;;15.90;73.87
35619;BME280;21743;55.786;37.168;2022-08-03T02:46:00;99782.63;;;15.96;73.70
35619;BME280;21743;55.786;37.168;2022-08-03T02:48:28;99772.75;;;15.98;73.95
35619;BME280;21743;55.786;37.168;2022-08-03T02:50:57;99778.47;;;16.02;74.08
35619;BME280;21743;55.786;37.168;2022-08-03T02:53:23;99789.06;;;16.08;73.92
35619;BME280;21743;55.786;37.168;2022-08-03T02:55:52;99775.75;;;16.10;73.77
35619;BME280;21743;55.786;37.168;2022-08-03T02:58:20;99784.91;;;16.14;73.92
35619;BME280;21743;55.786;37.168;2022-08-03T03:00:49;99786.38;;;16.16;74.36
35619;BME280;21743;55.786;37.168;2022-08-03T03:03:19;99780.75;;;16.19;74.05
35619;BME280;21743;55.786;37.168;2022-08-03T03:05:47;99786.81;;;16.20;74.24
35619;BME280;21743;55.786;37.168;2022-08-03T03:08:17;99792.81;;;16.29;74.21
35619;BME280;21743;55.786;37.168;2022-08-03T03:10:43;99790.00;;;16.30;74.26
35619;BME280;21743;55.786;37.168;2022-08-03T03:13:12;99790.91;;;16.37;74.28
35619;BME280;21743;55.786;37.168;2022-08-03T03:15:39;99787.03;;;16.48;73.80
35619;BME280;21743;55.786;37.168;2022-08-03T03:18:06;99787.47;;;16.51;73.62
35619;BME280;21743;55.786;37.168;2022-08-03T03:20:36;99796.09;;;16.60;73.68
35619;BME280;21743;55.786;37.168;2022-08-03T03:23:04;99786.69;;;16.66;73.65
35619;BME280;21743;55.786;37.168;2022-08-03T03:25:31;99791.22;;;16.72;73.55
35619;BME280;21743;55.786;37.168;2022-08-03T03:27:59;99793.69;;;16.73;73.54
35619;BME280;21743;55.786;37.168;2022-08-03T03:30:26;99787.72;;;16.79;73.67
35619;BME280;21743;55.786;37.168;2022-08-03T03:32:52;99786.78;;;16.87;73.72
35619;BME280;21743;55.786;37.168;2022-08-03T03:35:19;99787.88;;;16.93;73.66
35619;BME280;21743;55.786;37.168;2022-08-03T03:37:44;99779.16;;;16.92;73.67
35619;BME280;21743;55.786;37.168;2022-08-03T03:40:11;99791.66;;;17.05;73.51
35619;BME280;21743;55.786;37.168;2022-08-03T03:42:36;99783.41;;;17.08;73.56
35619;BME280;21743;55.786;37.168;2022-08-03T03:45:06;99787.91;;;17.14;73.63
35619;BME280;21743;55.786;37.168;2022-08-03T03:47:33;99794.69;;;17.23;73.84
35619;BME280;21743;55.786;37.168;2022-08-03T03:50:04;99794.13;;;17.28;73.99
35619;BME280;21743;55.786;37.168;2022-08-03T03:52:31;99790.13;;;17.32;74.02
35619;BME280;21743;55.786;37.168;2022-08-03T03:54:57;99790.41;;;17.37;74.13
35619;BME280;21743;55.786;37.168;2022-08-03T03:57:23;99789.63;;;17.43;74.03
35619;BME280;21743;55.786;37.168;2022-08-03T03:59:48;99795.97;;;17.48;74.37
35619;BME280;21743;55.786;37.168;2022-08-03T04:02:14;99795.25;;;17.54;74.41
35619;BME280;21743;55.786;37.168;2022-08-03T04:04:41;99796.91;;;17.62;74.57
35619;BME280;21743;55.786;37.168;2022-08-03T04:07:26;99798.41;;;17.65;74.74
35619;BME280;21743;55.786;37.168;2022-08-03T04:10:22;99795.44;;;17.74;74.35
35619;BME280;21743;55.786;37.168;2022-08-03T04:13:09;99795.88;;;17.78;74.63
35619;BME280;21743;55.786;37.168;2022-08-03T04:15:37;99803.84;;;17.84;74.81
35619;BME280;21743;55.786;37.168;2022-08-03T04:18:05;99803.06;;;17.90;74.77
35619;BME280;21743;55.786;37.168;2022-08-03T04:20:34;99805.41;;;18.00;74.40
35619;BME280;21743;55.786;37.168;2022-08-03T04:23:03;99807.75;;;18.16;74.31
35619;BME280;21743;55.786;37.168;2022-08-03T04:25:32;99805.59;;;18.26;74.46
35619;BME280;21743;55.786;37.168;2022-08-03T04:27:59;99810.97;;;18.40;73.93
35619;BME280;21743;55.786;37.168;2022-08-03T04:30:27;99807.84;;;18.57;73.73
35619;BME280;21743;55.786;37.168;2022-08-03T04:32:55;99805.53;;;18.76;73.14
35619;BME280;21743;55.786;37.168;2022-08-03T04:35:23;99802.97;;;18.95;72.57
35619;BME280;21743;55.786;37.168;2022-08-03T04:37:51;99798.97;;;19.13;71.64
35619;BME280;21743;55.786;37.168;2022-08-03T04:40:25;99799.25;;;19.31;70.95
35619;BME280;21743;55.786;37.168;2022-08-03T04:42:53;99795.41;;;19.40;71.38
35619;BME280;21743;55.786;37.168;2022-08-03T04:45:21;99803.00;;;19.56;70.73
35619;BME280;21743;55.786;37.168;2022-08-03T04:47:48;99796.13;;;19.69;69.93
35619;BME280;21743;55.786;37.168;2022-08-03T04:50:15;99805.47;;;19.84;69.55
35619;BME280;21743;55.786;37.168;2022-08-03T04:52:41;99797.56;;;19.97;68.76
35619;BME280;21743;55.786;37.168;2022-08-03T04:55:10;99802.22;;;20.09;68.00
35619;BME280;21743;55.786;37.168;2022-08-03T04:57:36;99811.78;;;20.16;67.81
35619;BME280;21743;55.786;37.168;2022-08-03T05:00:03;99802.00;;;20.23;67.39
35619;BME280;21743;55.786;37.168;2022-08-03T05:02:31;99809.50;;;20.33;67.25
35619;BME280;21743;55.786;37.168;2022-08-03T05:04:58;99808.75;;;20.39;67.06
35619;BME280;21743;55.786;37.168;2022-08-03T05:07:24;99805.47;;;20.44;66.64
35619;BME280;21743;55.786;37.168;2022-08-03T05:09:50;99808.72;;;20.52;66.37
35619;BME280;21743;55.786;37.168;2022-08-03T05:12:15;99809.31;;;20.61;65.37
35619;BME280;21743;55.786;37.168;2022-08-03T05:14:41;99806.44;;;20.69;65.66
35619;BME280;21743;55.786;37.168;2022-08-03T05:17:07;99804.59;;;20.76;65.66
35619;BME280;21743;55.786;37.168;2022-08-03T05:19:33;99809.03;;;20.82;66.05
35619;BME280;21743;55.786;37.168;2022-08-03T05:21:59;99807.81;;;20.85;65.45
35619;BME280;21743;55.786;37.168;2022-08-03T05:24:25;99804.72;;;20.94;65.15
35619;BME280;21743;55.786;37.168;2022-08-03T05:26:52;99809.19;;;21.00;65.13
35619;BME280;21743;55.786;37.168;2022-08-03T05:29:17;99805.09;;;21.04;65.22
35619;BME280;21743;55.786;37.168;2022-08-03T05:31:43;99811.38;;;21.10;64.57
35619;BME280;21743;55.786;37.168;2022-08-03T05:34:09;99812.59;;;21.21;64.03
35619;BME280;21743;55.786;37.168;2022-08-03T05:36:35;99806.22;;;21.28;63.71
35619;BME280;21743;55.786;37.168;2022-08-03T05:39:00;99814.34;;;21.33;63.13
35619;BME280;21743;55.786;37.168;2022-08-03T05:41:26;99805.78;;;21.38;63.04
35619;BME280;21743;55.786;37.168;2022-08-03T05:43:53;99803.28;;;21.50;63.39
35619;BME280;21743;55.786;37.168;2022-08-03T05:46:20;99807.47;;;21.57;63.71
35619;BME280;21743;55.786;37.168;2022-08-03T05:48:46;99806.44;;;21.65;62.81
35619;BME280;21743;55.786;37.168;2022-08-03T05:51:12;99807.34;;;21.77;62.02
35619;BME280;21743;55.786;37.168;2022-08-03T05:53:39;99806.66;;;21.88;62.15
35619;BME280;21743;55.786;37.168;2022-08-03T05:56:05;99804.19;;;21.93;61.56
35619;BME280;21743;55.786;37.168;2022-08-03T05:58:31;99815.94;;;22.04;61.89
35619;BME280;21743;55.786;37.168;2022-08-03T06:00:57;99806.13;;;22.11;62.29
35619;BME280;21743;55.786;37.168;2022-08-03T06:03:23;99805.59;;;22.21;61.76
35619;BME280;21743;55.786;37.168;2022-08-03T06:05:48;99804.31;;;22.30;60.96
35619;BME280;21743;55.786;37.168;2022-08-03T06:08:14;99807.28;;;22.40;60.73
35619;BME280;21743;55.786;37.168;2022-08-03T06:10:40;99805.50;;;22.52;59.84
35619;BME280;21743;55.786;37.168;2022-08-03T06:13:06;99808.63;;;22.67;59.46
35619;BME280;21743;55.786;37.168;2022-08-03T06:15:31;99803.19;;;22.80;58.99
35619;BME280;21743;55.786;37.168;2022-08-03T06:17:59;99803.03;;;22.94;58.12
35619;BME280;21743;55.786;37.168;2022-08-03T06:20:25;99796.31;;;23.09;57.70
35619;BME280;21743;55.786;37.168;2022-08-03T06:22:51;99802.25;;;23.23;57.71
35619;BME280;21743;55.786;37.168;2022-08-03T06:25:17;99807.63;;;23.35;57.71
35619;BME280;21743;55.786;37.168;2022-08-03T06:27:43;99797.63;;;23.48;56.29
35619;BME280;21743;55.786;37.168;2022-08-03T06:30:10;99797.22;;;23.63;55.88
35619;BME280;21743;55.786;37.168;2022-08-03T06:32:40;99798.28;;;23.74;55.63
35619;BME280;21743;55.786;37.168;2022-08-03T06:35:07;99798.53;;;23.84;55.28
35619;BME280;21743;55.786;37.168;2022-08-03T06:37:47;99795.56;;;23.92;53.87
35619;BME280;21743;55.786;37.168;2022-08-03T06:40:17;99794.75;;;24.03;53.54
35619;BME280;21743;55.786;37.168;2022-08-03T06:42:44;99802.50;;;24.16;52.99
35619;BME280;21743;55.786;37.168;2022-08-03T06:45:10;99801.25;;;24.31;51.52
35619;BME280;21743;55.786;37.168;2022-08-03T06:47:37;99799.41;;;24.43;51.20
35619;BME280;21743;55.786;37.168;2022-08-03T06:50:04;99803.69;;;24.56;50.99
35619;BME280;21743;55.786;37.168;2022-08-03T06:52:30;99803.44;;;24.69;49.36
35619;BME280;21743;55.786;37.168;2022-08-03T06:54:56;99815.66;;;24.81;50.43
35619;BME280;21743;55.786;37.168;2022-08-03T06:57:22;99810.53;;;24.92;48.88
35619;BME280;21743;55.786;37.168;2022-08-03T06:59:48;99804.66;;;25.01;48.68
35619;BME280;21743;55.786;37.168;2022-08-03T07:02:14;99820.00;;;25.11;49.47
35619;BME280;21743;55.786;37.168;2022-08-03T07:04:40;99812.13;;;25.16;49.58
35619;BME280;21743;55.786;37.168;2022-08-03T07:07:05;99808.03;;;25.25;50.18
35619;BME280;21743;55.786;37.168;2022-08-03T07:09:31;99805.88;;;25.39;49.10
35619;BME280;21743;55.786;37.168;2022-08-03T07:11:57;99808.00;;;25.53;48.32
35619;BME280;21743;55.786;37.168;2022-08-03T07:14:26;99812.59;;;25.70;48.57
35619;BME280;21743;55.786;37.168;2022-08-03T07:16:54;99801.69;;;25.88;48.22
35619;BME280;21743;55.786;37.168;2022-08-03T07:19:19;99806.47;;;26.03;46.68
35619;BME280;21743;55.786;37.168;2022-08-03T07:21:45;99810.75;;;26.20;46.96
35619;BME280;21743;55.786;37.168;2022-08-03T07:24:12;99816.66;;;26.39;47.11
35619;BME280;21743;55.786;37.168;2022-08-03T07:26:37;99808.31;;;26.52;46.97
35619;BME280;21743;55.786;37.168;2022-08-03T07:29:03;99802.28;;;26.62;46.39
35619;BME280;21743;55.786;37.168;2022-08-03T07:31:29;99803.28;;;26.78;46.50
35619;BME280;21743;55.786;37.168;2022-08-03T07:33:55;99815.44;;;26.90;45.50
35619;BME280;21743;55.786;37.168;2022-08-03T07:36:21;99812.69;;;27.02;44.54
35619;BME280;21743;55.786;37.168;2022-08-03T07:38:49;99810.38;;;27.11;43.99
35619;BME280;21743;55.786;37.168;2022-08-03T07:41:15;99805.84;;;27.11;43.17
35619;BME280;21743;55.786;37.168;2022-08-03T07:43:41;99814.59;;;27.28;43.53
35619;BME280;21743;55.786;37.168;2022-08-03T07:46:06;99818.66;;;27.36;41.86
35619;BME280;21743;55.786;37.168;2022-08-03T07:48:32;99805.25;;;27.31;42.41
35619;BME280;21743;55.786;37.168;2022-08-03T07:50:58;99808.69;;;27.26;41.56
35619;BME280;21743;55.786;37.168;2022-08-03T07:53:24;99811.69;;;27.35;41.05
35619;BME280;21743;55.786;37.168;2022-08-03T07:55:49;99805.31;;;27.36;42.16
35619;BME280;21743;55.786;37.168;2022-08-03T07:58:15;99815.75;;;27.38;42.31
35619;BME280;21743;55.786;37.168;2022-08-03T08:00:43;99811.25;;;27.43;41.16
35619;BME280;21743;55.786;37.168;2022-08-03T08:03:09;99817.38;;;27.65;41.97
35619;BME280;21743;55.786;37.168;2022-08-03T08:05:35;99823.13;;;27.79;40.30
35619;BME280;21743;55.786;37.168;2022-08-03T08:08:02;99816.50;;;27.87;37.64
35619;BME280;21743;55.786;37.168;2022-08-03T08:10:29;99812.06;;;28.02;35.58
35619;BME280;21743;55.786;37.168;2022-08-03T08:12:55;99808.69;;;28.17;37.48
35619;BME280;21743;55.786;37.168;2022-08-03T08:15:21;99811.75;;;28.26;38.37
35619;BME280;21743;55.786;37.168;2022-08-03T08:17:51;99819.78;;;28.31;39.04
35619;BME280;21743;55.786;37.168;2022-08-03T08:20:25;99821.75;;;28.41;37.99
35619;BME280;21743;55.786;37.168;2022-08-03T08:22:51;99819.63;;;28.48;37.03
35619;BME280;21743;55.786;37.168;2022-08-03T08:25:17;99813.78;;;28.61;37.66
35619;BME280;21743;55.786;37.168;2022-08-03T08:27:45;99816.34;;;28.83;37.57
35619;BME280;21743;55.786;37.168;2022-08-03T08:30:13;99814.25;;;28.95;37.61
35619;BME280;21743;55.786;37.168;2022-08-03T08:32:39;99820.44;;;29.05;37.30
35619;BME280;21743;55.786;37.168;2022-08-03T08:35:05;99816.44;;;29.18;37.49
35619;BME280;21743;55.786;37.168;2022-08-03T08:37:32;99810.34;;;29.38;36.72
35619;BME280;21743;55.786;37.168;2022-08-03T08:39:58;99820.84;;;29.55;36.39
35619;BME280;21743;55.786;37.168;2022-08-03T08:42:23;99816.56;;;29.54;36.47
35619;BME280;21743;55.786;37.168;2022-08-03T08:44:49;99814.16;;;29.67;34.80
35619;BME280;21743;55.786;37.168;2022-08-03T08:47:23;99807.47;;;29.70;34.06
35619;BME280;21743;55.786;37.168;2022-08-03T08:49:52;99811.75;;;29.76;34.76
35619;BME280;21743;55.786;37.168;2022-08-03T08:52:24;99804.53;;;29.77;34.17
35619;BME280;21743;55.786;37.168;2022-08-03T08:55:02;99812.56;;;29.77;34.95
35619;BME280;21743;55.786;37.168;2022-08-03T08:57:35;99804.25;;;29.78;35.23
35619;BME280;21743;55.786;37.168;2022-08-03T09:00:08;99814.44;;;29.76;35.23
35619;BME280;21743;55.786;37.168;2022-08-03T09:02:35;99810.16;;;29.70;34.96
35619;BME280;21743;55.786;37.168;2022-08-03T09:05:02;99820.63;;;29.77;35.73
35619;BME280;21743;55.786;37.168;2022-08-03T09:07:29;99819.25;;;29.64;35.68
35619;BME280;21743;55.786;37.168;2022-08-03T09:09:55;99825.94;;;29.46;35.89
35619;BME280;21743;55.786;37.168;2022-08-03T09:12:20;99819.44;;;29.17;36.09
35619;BME280;21743;55.786;37.168;2022-08-03T09:14:46;99823.66;;;29.08;34.83
35619;BME280;21743;55.786;37.168;2022-08-03T09:17:12;99817.22;;;28.98;35.89
35619;BME280;21743;55.786;37.168;2022-08-03T09:19:38;99820.13;;;28.92;35.08
35619;BME280;21743;55.786;37.168;2022-08-03T09:22:12;99814.25;;;28.95;36.33
35619;BME280;21743;55.786;37.168;2022-08-03T09:24:53;99815.53;;;28.82;35.74
35619;BME280;21743;55.786;37.168;2022-08-03T09:27:19;99826.97;;;28.73;36.53
35619;BME280;21743;55.786;37.168;2022-08-03T09:29:50;99826.19;;;28.72;36.08
35619;BME280;21743;55.786;37.168;2022-08-03T09:32:22;99822.41;;;28.73;36.08
35619;BME280;21743;55.786;37.168;2022-08-03T09:34:49;99827.47;;;28.64;36.15
35619;BME280;21743;55.786;37.168;2022-08-03T09:37:17;99827.94;;;28.51;37.44
35619;BME280;21743;55.786;37.168;2022-08-03T09:39:43;99825.53;;;28.50;37.13
35619;BME280;21743;55.786;37.168;2022-08-03T09:44:39;99832.25;;;28.52;36.39
35619;BME280;21743;55.786;37.168;2022-08-03T09:47:07;99826.59;;;28.49;38.07
35619;BME280;21743;55.786;37.168;2022-08-03T09:49:37;99820.72;;;28.52;38.42
35619;BME280;21743;55.786;37.168;2022-08-03T09:52:17;99821.03;;;28.60;38.43
35619;BME280;21743;55.786;37.168;2022-08-03T09:54:50;99809.53;;;28.65;38.36
35619;BME280;21743;55.786;37.168;2022-08-03T09:57:23;99822.72;;;28.77;38.93
35619;BME280;21743;55.786;37.168;2022-08-03T09:59:51;99822.78;;;28.82;38.05
35619;BME280;21743;55.786;37.168;2022-08-03T10:02:22;99819.03;;;28.88;38.10
35619;BME280;21743;55.786;37.168;2022-08-03T10:04:49;99818.25;;;28.92;36.86
35619;BME280;21743;55.786;37.168;2022-08-03T10:07:20;99812.09;;;28.92;38.47
35619;BME280;21743;55.786;37.168;2022-08-03T10:09:55;99824.16;;;28.94;37.23
35619;BME280;21743;55.786;37.168;2022-08-03T10:12:21;99822.00;;;28.91;37.23
35619;BME280;21743;55.786;37.168;2022-08-03T10:14:47;99816.38;;;28.93;38.70
35619;BME280;21743;55.786;37.168;2022-08-03T10:17:13;99826.59;;;28.96;37.27
35619;BME280;21743;55.786;37.168;2022-08-03T10:19:39;99817.16;;;28.88;37.09
35619;BME280;21743;55.786;37.168;2022-08-03T10:22:21;99822.25;;;28.85;37.69
35619;BME280;21743;55.786;37.168;2022-08-03T10:24:52;99827.06;;;28.88;37.69
35619;BME280;21743;55.786;37.168;2022-08-03T10:27:21;99823.63;;;28.87;38.00
35619;BME280;21743;55.786;37.168;2022-08-03T10:29:51;99828.44;;;28.90;39.62
35619;BME280;21743;55.786;37.168;2022-08-03T10:32:27;99827.63;;;28.90;37.39
35619;BME280;21743;55.786;37.168;2022-08-03T10:35:19;99834.34;;;28.87;38.55
35619;BME280;21743;55.786;37.168;2022-08-03T10:38:00;99831.81;;;28.76;39.23
35619;BME280;21743;55.786;37.168;2022-08-03T10:40:30;99835.22;;;28.61;38.58
35619;BME280;21743;55.786;37.168;2022-08-03T10:43:02;99834.53;;;28.33;37.97
35619;BME280;21743;55.786;37.168;2022-08-03T10:45:33;99840.81;;;28.17;38.04
35619;BME280;21743;55.786;37.168;2022-08-03T10:48:00;99839.06;;;28.01;39.37
35619;BME280;21743;55.786;37.168;2022-08-03T10:50:27;99843.03;;;27.93;39.43
35619;BME280;21743;55.786;37.168;2022-08-03T10:53:05;99841.56;;;27.81;39.05
35619;BME280;21743;55.786;37.168;2022-08-03T11:01:09;99842.53;;;27.70;40.80
35619;BME280;21743;55.786;37.168;2022-08-03T11:06:18;99848.63;;;27.60;39.98
35619;BME280;21743;55.786;37.168;2022-08-03T11:08:46;99841.16;;;27.62;42.07
35619;BME280;21743;55.786;37.168;2022-08-03T11:16:35;99839.06;;;27.69;40.34
35619;BME280;21743;55.786;37.168;2022-08-03T11:19:07;99846.53;;;27.67;40.92
35619;BME280;21743;55.786;37.168;2022-08-03T11:35:07;99843.66;;;27.47;39.98
35619;BME280;21743;55.786;37.168;2022-08-03T11:37:34;99839.84;;;27.43;40.77
35619;BME280;21743;55.786;37.168;2022-08-03T11:40:00;99839.84;;;27.43;40.22
35619;BME280;21743;55.786;37.168;2022-08-03T11:44:57;99834.94;;;27.56;40.56
35619;BME280;21743;55.786;37.168;2022-08-03T11:47:25;99832.88;;;27.63;40.58
35619;BME280;21743;55.786;37.168;2022-08-03T11:49:54;99843.59;;;27.69;40.48
35619;BME280;21743;55.786;37.168;2022-08-03T11:52:20;99844.09;;;27.65;39.80
35619;BME280;21743;55.786;37.168;2022-08-03T11:54:50;99840.34;;;27.61;40.81
35619;BME280;21743;55.786;37.168;2022-08-03T11:57:30;99844.00;;;27.55;41.31
35619;BME280;21743;55.786;37.168;2022-08-03T11:59:56;99838.34;;;27.52;41.45
35619;BME280;21743;55.786;37.168;2022-08-03T12:02:21;99845.13;;;27.59;40.63
35619;BME280;21743;55.786;37.168;2022-08-03T12:07:16;99826.97;;;27.61;39.75
35619;BME280;21743;55.786;37.168;2022-08-03T12:10:08;99836.09;;;27.65;38.95
35619;BME280;21743;55.786;37.168;2022-08-03T12:12:34;99827.28;;;27.65;39.62
35619;BME280;21743;55.786;37.168;2022-08-03T12:15:01;99831.28;;;27.67;39.13
35619;BME280;21743;55.786;37.168;2022-08-03T12:19:59;99819.03;;;27.72;40.46
35619;BME280;21743;55.786;37.168;2022-08-03T12:22:32;99830.53;;;27.72;40.57
35619;BME280;21743;55.786;37.168;2022-08-03T12:24:57;99814.66;;;27.60;40.12
35619;BME280;21743;55.786;37.168;2022-08-03T12:27:25;99832.31;;;27.61;40.60
35619;BME280;21743;55.786;37.168;2022-08-03T12:29:56;99827.94;;;27.55;40.74
35619;BME280;21743;55.786;37.168;2022-08-03T12:32:22;99819.09;;;27.50;41.16
35619;BME280;21743;55.786;37.168;2022-08-03T12:34:50;99822.53;;;27.50;40.51
35619;BME280;21743;55.786;37.168;2022-08-03T12:37:20;99824.16;;;27.51;41.38
35619;BME280;21743;55.786;37.168;2022-08-03T12:39:54;99821.47;;;27.51;40.49
35619;BME280;21743;55.786;37.168;2022-08-03T12:42:20;99819.63;;;27.52;40.86
35619;BME280;21743;55.786;37.168;2022-08-03T12:44:46;99823.66;;;27.54;40.75
35619;BME280;21743;55.786;37.168;2022-08-03T12:47:13;99824.25;;;27.56;40.79
35619;BME280;21743;55.786;37.168;2022-08-03T12:49:51;99815.63;;;27.54;40.01
35619;BME280;21743;55.786;37.168;2022-08-03T12:52:19;99820.97;;;27.54;39.97
35619;BME280;21743;55.786;37.168;2022-08-03T12:54:57;99831.78;;;27.59;40.77
35619;BME280;21743;55.786;37.168;2022-08-03T12:57:24;99826.97;;;27.61;41.72
35619;BME280;21743;55.786;37.168;2022-08-03T12:59:50;99826.16;;;27.61;40.40
35619;BME280;21743;55.786;37.168;2022-08-03T13:02:21;99824.06;;;27.63;39.78
35619;BME280;21743;55.786;37.168;2022-08-03T13:04:49;99824.63;;;27.65;39.94
35619;BME280;21743;55.786;37.168;2022-08-03T13:07:16;99837.69;;;27.66;39.86
35619;BME280;21743;55.786;37.168;2022-08-03T13:09:52;99833.16;;;27.67;39.86
35619;BME280;21743;55.786;37.168;2022-08-03T13:12:24;99825.38;;;27.65;40.43
35619;BME280;21743;55.786;37.168;2022-08-03T13:14:53;99828.38;;;27.69;39.33
35619;BME280;21743;55.786;37.168;2022-08-03T13:17:19;99822.53;;;27.72;39.41
35619;BME280;21743;55.786;37.168;2022-08-03T13:19:46;99830.59;;;27.77;40.21
35619;BME280;21743;55.786;37.168;2022-08-03T13:22:23;99818.03;;;27.78;39.66
35619;BME280;21743;55.786;37.168;2022-08-03T13:24:50;99816.44;;;27.82;39.86
35619;BME280;21743;55.786;37.168;2022-08-03T13:27:17;99831.19;;;27.84;40.01
35619;BME280;21743;55.786;37.168;2022-08-03T13:29:43;99822.59;;;27.82;39.66
35619;BME280;21743;55.786;37.168;2022-08-03T13:32:09;99814.31;;;27.84;39.57
35619;BME280;21743;55.786;37.168;2022-08-03T13:34:36;99817.78;;;27.79;39.60
35619;BME280;21743;55.786;37.168;2022-08-03T13:37:02;99821.53;;;27.78;39.85
35619;BME280;21743;55.786;37.168;2022-08-03T13:39:28;99820.16;;;27.76;39.84
35619;BME280;21743;55.786;37.168;2022-08-03T13:41:54;99816.38;;;27.72;39.83
35619;BME280;21743;55.786;37.168;2022-08-03T13:44:20;99826.25;;;27.71;39.83
35619;BME280;21743;55.786;37.168;2022-08-03T13:46:47;99819.53;;;27.63;39.28
35619;BME280;21743;55.786;37.168;2022-08-03T13:49:13;99825.91;;;27.62;39.60